Time;durP1;ratioP1;P1;durP2;ratioP2;P2;SDS_P1;SDS_P2;PMS_P1;PMS_P2;Temp;Humidity;BMP_temperature;BMP_pressure;BME280_temperature;BME280_humidity;BME280_pressure;Samples;Min_cycle;Max_cycle;Signal;HPM_P1;HPM_P2
2021/05/05 00:01:54;;;;;;;1.10;1.02;;;;;;;;;;5056597;28;20241;-81
2021/05/05 00:04:21;;;;;;;2.88;1.30;;;;;;;;;;5057454;28;20244;-81
2021/05/05 00:06:48;;;;;;;2.15;1.20;;;;;;;;;;5057086;28;20664;-81
2021/05/05 00:09:17;;;;;;;0.90;0.90;;;;;;;;;;5057299;28;20202;-81
2021/05/05 00:11:44;;;;;;;2.17;1.30;;;;;;;;;;5052975;28;20595;-81
2021/05/05 00:14:13;;;;;;;3.85;1.27;;;;;;;;;;5036892;28;20264;-81
2021/05/05 00:16:40;;;;;;;1.20;1.10;;;;;;;;;;5046563;28;20201;-81
2021/05/05 00:19:08;;;;;;;1.90;1.13;;;;;;;;;;5056707;28;20217;-81
2021/05/05 00:21:35;;;;;;;4.15;2.03;;;;;;;;;;5057064;28;20230;-81
2021/05/05 00:24:02;;;;;;;0.95;0.90;;;;;;;;;;5057205;28;20213;-81
2021/05/05 00:26:29;;;;;;;1.50;1.40;;;;;;;;;;5055130;28;20267;-81
2021/05/05 00:28:56;;;;;;;1.20;1.10;;;;;;;;;;5056417;28;20198;-81
2021/05/05 00:31:23;;;;;;;1.95;1.40;;;;;;;;;;5056723;28;20243;-81
2021/05/05 00:33:50;;;;;;;2.28;1.23;;;;;;;;;;5057072;28;20266;-81
2021/05/05 00:36:18;;;;;;;2.10;1.35;;;;;;;;;;5056477;28;20207;-81
2021/05/05 00:38:46;;;;;;;1.40;1.30;;;;;;;;;;5056858;28;20229;-81
2021/05/05 00:41:13;;;;;;;2.58;1.40;;;;;;;;;;5056553;28;20221;-81
2021/05/05 00:43:41;;;;;;;1.45;1.33;;;;;;;;;;5056488;28;20229;-81
2021/05/05 00:46:08;;;;;;;1.65;1.30;;;;;;;;;;5056551;28;20205;-81
2021/05/05 00:48:35;;;;;;;2.08;1.73;;;;;;;;;;5055983;28;20581;-80
2021/05/05 00:51:03;;;;;;;3.58;2.20;;;;;;;;;;5056687;28;20222;-81
2021/05/05 00:53:31;;;;;;;2.17;1.50;;;;;;;;;;5056407;28;20197;-81
2021/05/05 00:55:58;;;;;;;2.00;1.38;;;;;;;;;;5055730;28;20251;-81
2021/05/05 00:58:24;;;;;;;1.95;1.55;;;;;;;;;;5055810;28;20247;-80
2021/05/05 01:00:52;;;;;;;3.58;1.30;;;;;;;;;;5055558;28;20229;-80
2021/05/05 01:03:19;;;;;;;1.70;1.50;;;;;;;;;;5056346;28;20209;-81
2021/05/05 01:05:46;;;;;;;3.80;1.67;;;;;;;;;;5055655;28;20227;-81
2021/05/05 01:08:14;;;;;;;2.15;1.60;;;;;;;;;;5055921;28;20202;-81
2021/05/05 01:10:42;;;;;;;5.22;2.78;;;;;;;;;;5055616;28;20222;-80
2021/05/05 01:13:09;;;;;;;1.92;1.80;;;;;;;;;;5056064;28;20288;-81
2021/05/05 01:15:36;;;;;;;6.93;2.05;;;;;;;;;;5055107;28;20201;-80
2021/05/05 01:18:03;;;;;;;1.80;1.67;;;;;;;;;;5055552;28;20209;-81
2021/05/05 01:20:30;;;;;;;3.35;1.70;;;;;;;;;;5055400;28;20225;-80
2021/05/05 01:22:58;;;;;;;5.82;1.90;;;;;;;;;;5055124;28;20205;-81
2021/05/05 01:25:25;;;;;;;1.90;1.65;;;;;;;;;;5055674;28;20198;-81
2021/05/05 01:27:52;;;;;;;2.28;2.08;;;;;;;;;;5057282;28;20582;-81
2021/05/05 01:30:21;;;;;;;2.50;1.70;;;;;;;;;;5056914;28;20774;-81
2021/05/05 01:32:51;;;;;;;2.75;1.92;;;;;;;;;;5057527;28;20210;-80
2021/05/05 01:35:20;;;;;;;4.60;2.60;;;;;;;;;;5057907;28;20201;-81
2021/05/05 01:37:49;;;;;;;3.15;2.05;;;;;;;;;;5057264;28;20205;-81
2021/05/05 01:40:23;;;;;;;1.60;1.50;;;;;;;;;;5057525;28;20607;-81
2021/05/05 01:42:50;;;;;;;3.97;1.70;;;;;;;;;;5057172;28;20201;-81
2021/05/05 01:45:17;;;;;;;3.97;1.70;;;;;;;;;;5057201;28;20202;-81
2021/05/05 01:47:44;;;;;;;1.65;1.55;;;;;;;;;;5056440;28;20647;-81
2021/05/05 01:50:12;;;;;;;2.25;2.05;;;;;;;;;;5057323;28;20267;-81
2021/05/05 01:52:39;;;;;;;2.38;1.77;;;;;;;;;;5056479;28;20202;-81
2021/05/05 01:55:09;;;;;;;3.40;1.70;;;;;;;;;;5057373;28;20198;-81
2021/05/05 01:57:43;;;;;;;3.55;2.17;;;;;;;;;;5057192;28;20648;-81
2021/05/05 02:00:14;;;;;;;1.95;1.60;;;;;;;;;;5056448;28;20228;-81
2021/05/05 02:02:41;;;;;;;2.35;1.98;;;;;;;;;;5057337;28;20216;-81
2021/05/05 02:05:10;;;;;;;2.30;2.10;;;;;;;;;;5057383;28;20578;-81
2021/05/05 02:07:37;;;;;;;3.95;2.08;;;;;;;;;;5057051;28;20571;-81
2021/05/05 02:10:06;;;;;;;2.65;2.10;;;;;;;;;;5056716;28;20205;-81
2021/05/05 02:12:34;;;;;;;2.38;1.90;;;;;;;;;;5055798;28;20232;-81
2021/05/05 02:15:02;;;;;;;3.97;2.70;;;;;;;;;;5056447;28;20698;-81
2021/05/05 02:17:29;;;;;;;5.35;2.97;;;;;;;;;;5056546;28;20208;-81
2021/05/05 02:19:56;;;;;;;3.55;2.00;;;;;;;;;;5056332;28;20237;-81
2021/05/05 02:22:22;;;;;;;2.33;1.90;;;;;;;;;;5054867;28;20201;-81
2021/05/05 02:24:49;;;;;;;3.47;2.13;;;;;;;;;;5056226;28;20202;-81
2021/05/05 02:27:16;;;;;;;2.35;2.10;;;;;;;;;;5056014;28;20202;-81
2021/05/05 02:29:43;;;;;;;2.40;2.20;;;;;;;;;;5055858;28;20208;-82
2021/05/05 02:32:13;;;;;;;3.15;2.40;;;;;;;;;;5055644;28;20218;-81
2021/05/05 02:34:41;;;;;;;2.33;2.13;;;;;;;;;;5056587;28;20209;-81
2021/05/05 02:37:10;;;;;;;3.47;2.03;;;;;;;;;;5056168;28;20202;-81
2021/05/05 02:39:38;;;;;;;2.38;2.20;;;;;;;;;;5056466;28;20225;-81
2021/05/05 02:42:05;;;;;;;3.08;2.15;;;;;;;;;;5056012;28;20741;-81
2021/05/05 02:44:32;;;;;;;5.10;3.15;;;;;;;;;;5056621;28;20243;-81
2021/05/05 02:47:01;;;;;;;4.05;2.28;;;;;;;;;;5056149;28;20205;-81
2021/05/05 02:49:29;;;;;;;2.78;2.58;;;;;;;;;;5055596;28;20202;-81
2021/05/05 02:51:56;;;;;;;2.70;2.50;;;;;;;;;;5056878;28;20214;-81
2021/05/05 02:54:24;;;;;;;2.55;2.35;;;;;;;;;;5055744;28;20212;-81
2021/05/05 02:56:51;;;;;;;3.95;2.50;;;;;;;;;;5055608;28;20288;-81
2021/05/05 02:59:18;;;;;;;3.03;2.25;;;;;;;;;;5056390;28;20222;-81
2021/05/05 03:01:44;;;;;;;3.08;2.40;;;;;;;;;;5055823;28;20249;-81
2021/05/05 03:04:11;;;;;;;3.28;2.70;;;;;;;;;;5056260;28;20202;-81
2021/05/05 03:06:39;;;;;;;3.83;2.55;;;;;;;;;;5055124;28;20198;-83
2021/05/05 03:09:07;;;;;;;2.50;2.30;;;;;;;;;;5055471;28;20198;-81
2021/05/05 03:11:34;;;;;;;2.85;2.65;;;;;;;;;;5055367;28;20846;-81
2021/05/05 03:14:01;;;;;;;3.25;2.65;;;;;;;;;;5056090;28;20205;-82
2021/05/05 03:16:28;;;;;;;2.28;2.15;;;;;;;;;;5055458;28;20247;-81
2021/05/05 03:18:55;;;;;;;2.55;2.35;;;;;;;;;;5056013;28;20224;-81
2021/05/05 03:21:22;;;;;;;2.92;2.67;;;;;;;;;;5056208;28;20590;-81
2021/05/05 03:23:49;;;;;;;2.92;2.20;;;;;;;;;;5056034;28;20269;-81
2021/05/05 03:26:16;;;;;;;2.60;2.40;;;;;;;;;;5056477;28;20206;-80
2021/05/05 03:28:43;;;;;;;3.13;2.75;;;;;;;;;;5056512;28;20589;-81
2021/05/05 03:31:10;;;;;;;2.78;2.58;;;;;;;;;;5056270;28;20225;-81
2021/05/05 03:33:37;;;;;;;3.67;2.55;;;;;;;;;;5056207;28;20202;-81
2021/05/05 03:36:05;;;;;;;3.15;2.45;;;;;;;;;;5055606;28;20194;-81
2021/05/05 03:38:32;;;;;;;2.40;2.20;;;;;;;;;;5056070;28;20197;-81
2021/05/05 03:41:00;;;;;;;3.35;2.70;;;;;;;;;;5055595;28;20233;-82
2021/05/05 03:43:27;;;;;;;2.90;2.70;;;;;;;;;;5056219;28;20321;-82
2021/05/05 03:45:54;;;;;;;3.25;2.95;;;;;;;;;;5056191;28;20202;-82
2021/05/05 03:48:23;;;;;;;4.32;2.55;;;;;;;;;;5056254;28;20213;-81
2021/05/05 03:50:50;;;;;;;2.63;2.42;;;;;;;;;;5055961;28;20224;-81
2021/05/05 03:53:17;;;;;;;2.97;2.75;;;;;;;;;;5055828;28;20206;-82
2021/05/05 03:55:44;;;;;;;2.38;2.17;;;;;;;;;;5056240;28;20201;-80
2021/05/05 03:58:12;;;;;;;2.38;2.17;;;;;;;;;;5056628;28;20213;-81
2021/05/05 04:00:39;;;;;;;3.90;2.50;;;;;;;;;;5056093;28;20226;-81
2021/05/05 04:03:06;;;;;;;2.42;2.22;;;;;;;;;;5059768;28;20202;-81
2021/05/05 04:05:33;;;;;;;3.30;2.47;;;;;;;;;;5060166;28;20201;-82
2021/05/05 04:08:00;;;;;;;2.30;2.10;;;;;;;;;;5059851;28;20208;-81
2021/05/05 04:10:27;;;;;;;2.47;2.17;;;;;;;;;;5059165;28;20226;-81
2021/05/05 04:12:54;;;;;;;3.85;2.60;;;;;;;;;;5059393;28;20209;-82
2021/05/05 04:15:22;;;;;;;2.65;2.33;;;;;;;;;;5060245;28;20202;-82
2021/05/05 04:17:48;;;;;;;3.47;2.40;;;;;;;;;;5059102;28;20209;-82
2021/05/05 04:20:17;;;;;;;2.55;2.35;;;;;;;;;;5059722;28;20217;-80
2021/05/05 04:22:44;;;;;;;3.40;2.33;;;;;;;;;;5059786;28;20538;-81
2021/05/05 04:25:11;;;;;;;2.78;2.33;;;;;;;;;;5059455;28;20210;-82
2021/05/05 04:27:39;;;;;;;7.07;2.50;;;;;;;;;;5059169;28;20668;-81
2021/05/05 04:30:07;;;;;;;2.65;2.22;;;;;;;;;;5058828;28;20198;-81
2021/05/05 04:32:35;;;;;;;2.50;2.30;;;;;;;;;;5059226;28;20197;-81
2021/05/05 04:35:02;;;;;;;2.60;2.10;;;;;;;;;;5058837;28;20312;-82
2021/05/05 04:37:29;;;;;;;2.65;2.08;;;;;;;;;;5058972;28;20585;-80
2021/05/05 04:39:56;;;;;;;3.47;2.25;;;;;;;;;;5059047;28;20717;-81
2021/05/05 04:42:23;;;;;;;2.60;2.40;;;;;;;;;;5059104;28;20617;-81
2021/05/05 04:44:50;;;;;;;3.13;2.83;;;;;;;;;;5058988;28;20201;-81
2021/05/05 04:47:17;;;;;;;2.65;2.35;;;;;;;;;;5059139;28;20198;-81
2021/05/05 04:49:44;;;;;;;4.10;2.30;;;;;;;;;;5059233;28;20213;-80
2021/05/05 04:52:11;;;;;;;3.83;3.38;;;;;;;;;;5060829;28;20233;-82
2021/05/05 04:54:38;;;;;;;4.72;2.35;;;;;;;;;;5058835;28;20210;-81
2021/05/05 04:57:05;;;;;;;2.60;2.33;;;;;;;;;;5058110;28;20206;-82
2021/05/05 04:59:32;;;;;;;3.53;2.58;;;;;;;;;;5058830;28;20233;-81
2021/05/05 05:01:59;;;;;;;3.30;2.50;;;;;;;;;;5058775;28;20229;-81
2021/05/05 05:04:26;;;;;;;2.15;1.95;;;;;;;;;;5058752;28;20201;-82
2021/05/05 05:06:53;;;;;;;3.60;2.65;;;;;;;;;;5058249;28;20201;-82
2021/05/05 05:09:20;;;;;;;3.22;2.63;;;;;;;;;;5058365;28;20213;-81
2021/05/05 05:11:47;;;;;;;4.55;2.70;;;;;;;;;;5057866;28;20229;-81
2021/05/05 05:14:14;;;;;;;7.80;3.30;;;;;;;;;;5058195;28;20210;-81
2021/05/05 05:16:41;;;;;;;5.10;3.28;;;;;;;;;;5059092;28;20201;-82
2021/05/05 05:19:08;;;;;;;2.88;2.40;;;;;;;;;;5058359;28;20202;-81
2021/05/05 05:21:36;;;;;;;3.03;2.83;;;;;;;;;;5058283;28;20237;-81
2021/05/05 05:24:05;;;;;;;4.15;2.83;;;;;;;;;;5058390;28;20209;-82
2021/05/05 05:26:31;;;;;;;3.03;2.83;;;;;;;;;;5057867;28;20217;-80
2021/05/05 05:28:58;;;;;;;3.08;2.67;;;;;;;;;;5058172;28;20205;-82
2021/05/05 05:31:25;;;;;;;3.75;2.70;;;;;;;;;;5060298;28;20217;-81
2021/05/05 05:33:52;;;;;;;3.00;2.70;;;;;;;;;;5060353;28;20581;-81
2021/05/05 05:36:19;;;;;;;2.90;2.70;;;;;;;;;;5058050;28;20202;-82
2021/05/05 05:38:46;;;;;;;2.80;2.60;;;;;;;;;;5057946;28;20205;-80
2021/05/05 05:41:13;;;;;;;2.95;2.60;;;;;;;;;;5058301;28;20222;-82
2021/05/05 05:43:40;;;;;;;3.03;2.75;;;;;;;;;;5058710;28;20209;-82
2021/05/05 05:46:09;;;;;;;2.85;2.58;;;;;;;;;;5057730;28;20205;-82
2021/05/05 05:48:36;;;;;;;3.42;2.58;;;;;;;;;;5057956;28;20652;-81
2021/05/05 05:51:04;;;;;;;5.75;3.95;;;;;;;;;;5057723;28;20700;-80
2021/05/05 05:53:31;;;;;;;3.05;2.38;;;;;;;;;;5058146;28;20208;-81
2021/05/05 05:55:57;;;;;;;3.90;2.33;;;;;;;;;;5057175;28;20523;-81
2021/05/05 05:58:25;;;;;;;3.13;2.30;;;;;;;;;;5057756;28;20206;-82
2021/05/05 06:00:52;;;;;;;3.63;2.92;;;;;;;;;;5057399;28;20248;-82
2021/05/05 06:03:19;;;;;;;3.90;2.58;;;;;;;;;;5056986;28;20202;-82
2021/05/05 06:05:46;;;;;;;2.70;2.50;;;;;;;;;;5057304;28;20585;-81
2021/05/05 06:08:14;;;;;;;2.88;2.10;;;;;;;;;;5057074;28;20205;-82
2021/05/05 06:10:41;;;;;;;2.88;2.47;;;;;;;;;;5057302;28;20225;-82
2021/05/05 06:13:08;;;;;;;4.68;2.42;;;;;;;;;;5056655;28;20202;-82
2021/05/05 06:15:35;;;;;;;2.28;2.08;;;;;;;;;;5057031;28;20206;-82
2021/05/05 06:18:03;;;;;;;3.05;2.72;;;;;;;;;;5057258;28;20578;-81
2021/05/05 06:20:30;;;;;;;2.13;2.03;;;;;;;;;;5056601;28;20233;-81
2021/05/05 06:22:57;;;;;;;2.40;2.20;;;;;;;;;;5056351;28;20205;-81
2021/05/05 06:25:24;;;;;;;2.50;1.77;;;;;;;;;;5056750;28;20208;-81
2021/05/05 06:27:52;;;;;;;2.55;2.25;;;;;;;;;;5056541;28;20212;-80
2021/05/05 06:30:22;;;;;;;2.83;2.63;;;;;;;;;;5056178;28;20222;-80
2021/05/05 06:32:49;;;;;;;3.60;2.20;;;;;;;;;;5056766;28;20614;-81
2021/05/05 06:35:17;;;;;;;4.13;2.75;;;;;;;;;;5056791;28;20200;-82
2021/05/05 06:37:44;;;;;;;2.88;2.55;;;;;;;;;;5057250;28;20202;-81
2021/05/05 06:40:12;;;;;;;2.80;2.60;;;;;;;;;;5056966;28;20225;-81
2021/05/05 06:42:39;;;;;;;2.38;2.17;;;;;;;;;;5056177;28;20209;-81
2021/05/05 06:45:08;;;;;;;2.42;2.20;;;;;;;;;;5056726;28;20684;-81
2021/05/05 06:47:36;;;;;;;2.88;2.03;;;;;;;;;;5056571;28;20205;-82
2021/05/05 06:50:04;;;;;;;2.22;2.03;;;;;;;;;;5056917;28;20565;-82
2021/05/05 06:52:31;;;;;;;2.88;2.03;;;;;;;;;;5057077;28;20279;-82
2021/05/05 06:54:58;;;;;;;2.85;2.22;;;;;;;;;;5056851;28;20206;-82
2021/05/05 06:57:25;;;;;;;2.83;2.17;;;;;;;;;;5063664;28;20201;-81
2021/05/05 06:59:52;;;;;;;2.65;2.20;;;;;;;;;;5076486;28;20188;-82
2021/05/05 07:02:18;;;;;;;2.90;2.15;;;;;;;;;;5076293;28;20239;-81
2021/05/05 07:04:46;;;;;;;3.22;2.55;;;;;;;;;;5076286;28;20178;-82
2021/05/05 07:07:14;;;;;;;1.90;1.80;;;;;;;;;;5075347;28;20263;-82
2021/05/05 07:09:41;;;;;;;2.00;1.90;;;;;;;;;;5076482;28;20192;-81
2021/05/05 07:12:09;;;;;;;2.30;1.60;;;;;;;;;;5076627;28;20221;-81
2021/05/05 07:14:35;;;;;;;2.05;1.80;;;;;;;;;;5076405;28;20230;-81
2021/05/05 07:17:02;;;;;;;2.78;1.88;;;;;;;;;;5076258;28;20204;-81
2021/05/05 07:19:29;;;;;;;2.05;1.77;;;;;;;;;;5076779;28;20283;-81
2021/05/05 07:21:56;;;;;;;2.85;1.90;;;;;;;;;;5076590;28;20232;-81
2021/05/05 07:24:24;;;;;;;1.73;1.63;;;;;;;;;;5076623;28;20201;-82
2021/05/05 07:26:51;;;;;;;1.90;1.50;;;;;;;;;;5076274;28;20192;-82
2021/05/05 07:29:18;;;;;;;1.90;1.80;;;;;;;;;;5073733;28;20181;-82
2021/05/05 07:31:44;;;;;;;1.77;1.60;;;;;;;;;;5056297;28;20221;-82
2021/05/05 07:34:11;;;;;;;2.30;2.20;;;;;;;;;;5056903;28;20552;-82
2021/05/05 07:36:43;;;;;;;2.80;2.38;;;;;;;;;;5060128;28;20190;-82
2021/05/05 07:39:33;;;;;;;1.80;1.70;;;;;;;;;;5060159;28;20250;-82
2021/05/05 07:45:09;;;;;;;2.60;1.65;;;;;;;;;;5060552;28;20197;-82
2021/05/05 07:47:37;;;;;;;1.58;1.48;;;;;;;;;;5058906;28;20216;-82
2021/05/05 07:50:08;;;;;;;2.53;1.70;;;;;;;;;;5060368;28;20212;-83
2021/05/05 07:52:36;;;;;;;1.85;1.75;;;;;;;;;;5060085;28;20194;-83
2021/05/05 07:55:03;;;;;;;2.50;1.60;;;;;;;;;;5060774;28;20209;-82
2021/05/05 07:57:31;;;;;;;2.50;1.70;;;;;;;;;;5060558;28;20577;-83
2021/05/05 07:59:58;;;;;;;2.00;1.90;;;;;;;;;;5059928;28;20386;-82
2021/05/05 08:02:25;;;;;;;2.53;1.60;;;;;;;;;;5060203;28;20244;-82
2021/05/05 08:04:51;;;;;;;1.60;1.50;;;;;;;;;;5059875;28;20198;-82
2021/05/05 08:07:20;;;;;;;1.92;1.73;;;;;;;;;;5059227;28;20217;-82
2021/05/05 08:09:48;;;;;;;2.97;2.30;;;;;;;;;;5059784;28;20205;-82
2021/05/05 08:12:15;;;;;;;2.53;2.30;;;;;;;;;;5059425;28;20217;-82
2021/05/05 08:14:45;;;;;;;2.28;2.17;;;;;;;;;;5059301;28;20202;-82
2021/05/05 08:17:12;;;;;;;2.25;2.08;;;;;;;;;;5059452;28;20202;-82
2021/05/05 08:19:40;;;;;;;4.20;1.95;;;;;;;;;;5059583;28;20201;-81
2021/05/05 08:22:07;;;;;;;2.08;1.98;;;;;;;;;;5059401;28;20282;-82
2021/05/05 08:24:33;;;;;;;2.22;2.00;;;;;;;;;;5059736;28;20672;-81
2021/05/05 08:27:00;;;;;;;2.00;1.80;;;;;;;;;;5059136;28;20202;-83
2021/05/05 08:29:28;;;;;;;2.75;1.85;;;;;;;;;;5059766;28;20213;-82
2021/05/05 08:31:56;;;;;;;3.05;2.78;;;;;;;;;;5058986;28;20226;-82
2021/05/05 08:34:25;;;;;;;1.98;1.80;;;;;;;;;;5059222;28;20343;-83
2021/05/05 08:36:52;;;;;;;4.13;2.25;;;;;;;;;;5059458;28;20208;-82
2021/05/05 08:39:19;;;;;;;2.20;1.98;;;;;;;;;;5059070;28;20210;-82
2021/05/05 08:41:46;;;;;;;1.75;1.65;;;;;;;;;;5058723;28;20232;-82
2021/05/05 08:44:14;;;;;;;2.10;1.90;;;;;;;;;;5059270;28;20212;-83
2021/05/05 08:46:44;;;;;;;1.65;1.55;;;;;;;;;;5058315;28;20202;-82
2021/05/05 08:49:13;;;;;;;1.98;1.88;;;;;;;;;;5058994;28;20202;-82
2021/05/05 08:51:39;;;;;;;1.80;1.70;;;;;;;;;;5059242;28;20225;-83
2021/05/05 08:54:08;;;;;;;1.92;1.40;;;;;;;;;;5059060;28;20579;-82
2021/05/05 08:56:36;;;;;;;2.83;2.15;;;;;;;;;;5059491;28;20227;-83
2021/05/05 08:59:04;;;;;;;1.98;1.50;;;;;;;;;;5059272;28;20206;-82
2021/05/05 09:01:31;;;;;;;1.80;1.70;;;;;;;;;;5058619;28;20634;-82
2021/05/05 09:03:59;;;;;;;2.42;2.15;;;;;;;;;;5058850;28;20198;-83
2021/05/05 09:06:47;;;;;;;2.10;1.88;;;;;;;;;;5058599;28;20198;-83
2021/05/05 09:09:38;;;;;;;2.13;1.55;;;;;;;;;;5059241;28;20257;-83
2021/05/05 09:12:23;;;;;;;1.60;1.50;;;;;;;;;;5059209;28;20214;-84
2021/05/05 09:14:59;;;;;;;2.80;1.60;;;;;;;;;;5059155;28;20233;-84
2021/05/05 09:17:28;;;;;;;2.00;1.90;;;;;;;;;;5059164;28;20223;-82
2021/05/05 09:20:27;;;;;;;1.90;1.70;;;;;;;;;;5058579;28;20690;-82
2021/05/05 09:22:57;;;;;;;3.85;2.47;;;;;;;;;;5023307;28;20230;-83
2021/05/05 09:25:26;;;;;;;4.50;2.47;;;;;;;;;;5058761;28;20285;-83
2021/05/05 09:28:12;;;;;;;1.10;1.00;;;;;;;;;;5058245;28;20201;-83
2021/05/05 09:30:41;;;;;;;0.70;0.70;;;;;;;;;;5058722;28;20221;-83
2021/05/05 09:33:08;;;;;;;0.90;0.85;;;;;;;;;;5058464;28;20201;-82
2021/05/05 09:35:37;;;;;;;1.17;0.80;;;;;;;;;;5058772;28;20205;-82
2021/05/05 09:38:07;;;;;;;0.85;0.85;;;;;;;;;;5058231;28;20209;-82
2021/05/05 09:40:35;;;;;;;1.30;1.23;;;;;;;;;;5058445;28;20221;-82
2021/05/05 09:43:16;;;;;;;0.60;0.60;;;;;;;;;;5057797;28;20699;-82
2021/05/05 09:45:44;;;;;;;0.90;0.60;;;;;;;;;;5058186;28;20219;-82
2021/05/05 09:48:11;;;;;;;0.68;0.68;;;;;;;;;;5058310;28;20208;-83
2021/05/05 09:50:41;;;;;;;1.38;1.27;;;;;;;;;;5058355;28;20588;-82
2021/05/05 09:53:28;;;;;;;1.80;1.20;;;;;;;;;;5058109;28;20582;-82
2021/05/05 09:56:13;;;;;;;1.00;1.00;;;;;;;;;;5058878;28;20205;-83
2021/05/05 09:58:41;;;;;;;0.70;0.70;;;;;;;;;;5058422;28;20208;-82
2021/05/05 10:01:21;;;;;;;0.68;0.68;;;;;;;;;;5058301;28;20291;-82
2021/05/05 10:03:52;;;;;;;0.70;0.70;;;;;;;;;;5057572;28;20228;-82
2021/05/05 10:06:27;;;;;;;0.80;0.80;;;;;;;;;;5057898;28;20208;-82
2021/05/05 10:08:58;;;;;;;1.50;0.60;;;;;;;;;;5060318;28;20197;-82
2021/05/05 10:11:28;;;;;;;0.70;0.70;;;;;;;;;;5058108;28;20232;-83
2021/05/05 10:13:59;;;;;;;0.60;0.60;;;;;;;;;;5059395;28;20224;-81
2021/05/05 10:16:28;;;;;;;0.60;0.60;;;;;;;;;;5057285;28;20202;-82
2021/05/05 10:18:55;;;;;;;0.80;0.80;;;;;;;;;;5058240;28;20201;-81
2021/05/05 10:21:25;;;;;;;0.68;0.68;;;;;;;;;;5058222;28;20452;-81
2021/05/05 10:23:56;;;;;;;0.85;0.85;;;;;;;;;;5057036;28;20209;-82
2021/05/05 10:26:24;;;;;;;0.80;0.80;;;;;;;;;;5058128;28;20264;-81
2021/05/05 10:28:52;;;;;;;1.13;0.80;;;;;;;;;;5058785;28;20288;-82
2021/05/05 10:31:22;;;;;;;0.80;0.73;;;;;;;;;;5059279;28;20223;-81
2021/05/05 10:33:52;;;;;;;1.13;0.68;;;;;;;;;;5059262;28;20210;-80
2021/05/05 10:36:30;;;;;;;0.80;0.80;;;;;;;;;;5060196;28;20198;-81
2021/05/05 10:38:58;;;;;;;0.75;0.70;;;;;;;;;;5058811;28;20209;-82
2021/05/05 10:41:25;;;;;;;0.70;0.70;;;;;;;;;;5059552;28;20728;-82
2021/05/05 10:43:56;;;;;;;0.95;0.95;;;;;;;;;;5057159;28;20707;-82
2021/05/05 10:46:34;;;;;;;0.88;0.88;;;;;;;;;;5056595;28;20197;-82
2021/05/05 10:49:15;;;;;;;1.08;1.00;;;;;;;;;;5056859;28;20252;-82
2021/05/05 10:52:07;;;;;;;0.80;0.80;;;;;;;;;;5056070;28;20221;-82
2021/05/05 10:54:54;;;;;;;1.00;1.00;;;;;;;;;;5040930;28;20206;-82
2021/05/05 10:57:22;;;;;;;1.60;1.50;;;;;;;;;;5056054;28;20209;-83
2021/05/05 11:00:12;;;;;;;1.08;1.08;;;;;;;;;;5056529;28;20206;-82
2021/05/05 11:02:48;;;;;;;0.95;0.95;;;;;;;;;;5056588;28;20285;-81
2021/05/05 11:05:16;;;;;;;0.80;0.80;;;;;;;;;;5055558;28;20213;-82
2021/05/05 11:07:51;;;;;;;0.77;0.77;;;;;;;;;;5055618;28;20201;-81
2021/05/05 11:10:48;;;;;;;1.13;1.13;;;;;;;;;;5055855;28;20243;-82
2021/05/05 11:13:41;;;;;;;0.98;0.88;;;;;;;;;;5057287;28;20204;-82
2021/05/05 11:16:08;;;;;;;0.90;0.90;;;;;;;;;;5056075;28;20194;-82
2021/05/05 11:18:48;;;;;;;1.10;1.10;;;;;;;;;;5055725;28;20217;-82
2021/05/05 11:21:42;;;;;;;0.95;0.95;;;;;;;;;;5056064;28;20233;-82
2021/05/05 11:24:33;;;;;;;0.98;0.90;;;;;;;;;;5056549;28;20208;-82
2021/05/05 11:27:02;;;;;;;1.30;1.00;;;;;;;;;;5056749;28;20733;-82
2021/05/05 11:29:38;;;;;;;0.95;0.95;;;;;;;;;;5056830;28;20201;-81
2021/05/05 11:32:13;;;;;;;0.98;0.98;;;;;;;;;;5056310;28;20713;-82
2021/05/05 11:34:41;;;;;;;1.02;1.00;;;;;;;;;;5058457;28;20198;-81
2021/05/05 11:37:12;;;;;;;1.20;1.10;;;;;;;;;;5060898;28;20583;-81
2021/05/05 11:39:41;;;;;;;1.05;1.00;;;;;;;;;;5060627;28;20579;-81
2021/05/05 11:42:13;;;;;;;1.27;1.17;;;;;;;;;;5061024;28;20226;-83
2021/05/05 11:44:43;;;;;;;1.17;1.08;;;;;;;;;;5061654;28;20209;-82
2021/05/05 11:47:13;;;;;;;1.40;1.30;;;;;;;;;;5061278;28;20668;-82
2021/05/05 11:49:42;;;;;;;1.10;1.00;;;;;;;;;;5062860;28;20202;-81
2021/05/05 11:52:24;;;;;;;1.33;1.23;;;;;;;;;;5061176;28;20213;-81
2021/05/05 11:54:56;;;;;;;0.90;0.90;;;;;;;;;;5061869;28;20292;-81
2021/05/05 11:57:24;;;;;;;3.53;1.30;;;;;;;;;;5060342;28;20312;-82
2021/05/05 11:59:51;;;;;;;1.25;1.20;;;;;;;;;;5061260;28;20201;-81
2021/05/05 12:02:19;;;;;;;2.13;1.20;;;;;;;;;;5059322;28;20233;-83
2021/05/05 12:04:47;;;;;;;0.80;0.80;;;;;;;;;;5060574;28;20672;-82
2021/05/05 12:07:19;;;;;;;3.55;1.20;;;;;;;;;;5060433;28;20214;-82
2021/05/05 12:09:47;;;;;;;1.20;1.20;;;;;;;;;;5060089;28;20676;-82
2021/05/05 12:12:28;;;;;;;1.33;1.13;;;;;;;;;;5060288;28;20241;-82
2021/05/05 12:15:01;;;;;;;2.78;1.90;;;;;;;;;;5058167;28;20267;-81
2021/05/05 12:17:32;;;;;;;1.20;1.10;;;;;;;;;;5059116;28;20214;-81
2021/05/05 12:20:08;;;;;;;2.53;1.55;;;;;;;;;;5059971;28;20233;-81
2021/05/05 12:22:37;;;;;;;3.10;1.48;;;;;;;;;;5062634;28;20213;-81
2021/05/05 12:25:13;;;;;;;1.77;1.67;;;;;;;;;;5064902;28;20194;-81
2021/05/05 12:28:00;;;;;;;1.50;1.40;;;;;;;;;;5065671;28;20295;-82
2021/05/05 12:30:37;;;;;;;1.77;1.20;;;;;;;;;;5067048;28;20302;-83
2021/05/05 12:33:04;;;;;;;1.77;1.27;;;;;;;;;;5066381;28;20198;-83
2021/05/05 12:35:31;;;;;;;1.45;1.30;;;;;;;;;;5066520;28;20208;-84
2021/05/05 12:37:58;;;;;;;1.80;1.38;;;;;;;;;;5066414;28;20201;-84
2021/05/05 12:40:27;;;;;;;1.00;1.00;;;;;;;;;;5066611;28;20216;-83
2021/05/05 12:42:55;;;;;;;4.22;1.60;;;;;;;;;;5065554;28;20657;-83
2021/05/05 12:45:23;;;;;;;2.67;1.17;;;;;;;;;;5064672;28;20208;-85
2021/05/05 12:47:49;;;;;;;1.95;1.35;;;;;;;;;;5065357;28;20197;-83
2021/05/05 12:50:17;;;;;;;2.30;1.73;;;;;;;;;;5064217;28;20220;-83
2021/05/05 12:52:44;;;;;;;3.72;1.63;;;;;;;;;;5065643;28;20217;-83
2021/05/05 12:55:29;;;;;;;2.70;1.50;;;;;;;;;;5065745;28;20232;-83
2021/05/05 12:58:09;;;;;;;1.65;1.25;;;;;;;;;;5065426;28;20206;-83
2021/05/05 13:00:38;;;;;;;1.58;1.30;;;;;;;;;;5064743;28;20582;-83
2021/05/05 13:03:09;;;;;;;2.15;1.38;;;;;;;;;;5065146;28;20263;-84
2021/05/05 13:05:55;;;;;;;2.58;1.40;;;;;;;;;;5065508;28;20194;-84
2021/05/05 13:08:35;;;;;;;1.50;1.40;;;;;;;;;;5065295;28;20217;-83
2021/05/05 13:11:07;;;;;;;1.23;1.17;;;;;;;;;;5066252;28;20225;-83
2021/05/05 13:13:46;;;;;;;1.38;1.23;;;;;;;;;;5063148;28;20193;-83
2021/05/05 13:16:27;;;;;;;1.70;1.30;;;;;;;;;;5064478;28;20221;-82
2021/05/05 13:30:30;;;;;;;3.05;1.50;;;;;;;;;;5026777;28;20275;-84
2021/05/05 13:33:01;;;;;;;1.48;1.20;;;;;;;;;;5057631;28;20244;-83
2021/05/05 13:35:38;;;;;;;1.15;1.10;;;;;;;;;;5057561;28;20209;-83
2021/05/05 13:38:09;;;;;;;1.15;1.05;;;;;;;;;;5057314;28;20201;-83
2021/05/05 13:40:39;;;;;;;2.17;1.33;;;;;;;;;;5057964;28;20226;-82
2021/05/05 13:43:15;;;;;;;1.17;1.08;;;;;;;;;;5057365;28;20271;-83
2021/05/05 13:45:46;;;;;;;2.13;1.42;;;;;;;;;;5057681;28;20212;-84
2021/05/05 13:48:23;;;;;;;2.60;1.20;;;;;;;;;;5057249;28;20244;-84
2021/05/05 13:50:51;;;;;;;1.73;1.02;;;;;;;;;;5056818;28;20221;-84
2021/05/05 13:53:17;;;;;;;2.13;1.15;;;;;;;;;;5057088;28;20202;-84
2021/05/05 13:55:44;;;;;;;1.33;1.20;;;;;;;;;;5056896;28;20588;-83
2021/05/05 13:58:11;;;;;;;1.05;0.98;;;;;;;;;;5057471;28;20288;-83
2021/05/05 14:00:38;;;;;;;2.00;1.17;;;;;;;;;;5056502;28;20225;-84
2021/05/05 14:03:06;;;;;;;0.88;0.88;;;;;;;;;;5057003;28;20654;-83
2021/05/05 14:05:37;;;;;;;3.38;1.75;;;;;;;;;;5056383;28;20206;-84
2021/05/05 14:08:05;;;;;;;3.75;1.25;;;;;;;;;;5056331;28;20672;-83
2021/05/05 14:10:32;;;;;;;1.50;0.90;;;;;;;;;;5055450;28;20229;-82
2021/05/05 14:13:00;;;;;;;1.50;1.02;;;;;;;;;;5055841;28;20202;-82
2021/05/05 14:15:33;;;;;;;2.05;1.08;;;;;;;;;;5055691;28;20232;-83
2021/05/05 14:17:59;;;;;;;3.53;1.20;;;;;;;;;;5055300;28;20668;-84
2021/05/05 14:20:28;;;;;;;1.67;0.90;;;;;;;;;;5055599;28;20229;-83
2021/05/05 14:22:55;;;;;;;5.85;1.13;;;;;;;;;;5055293;28;20206;-83
2021/05/05 14:25:22;;;;;;;4.90;1.45;;;;;;;;;;5055350;28;20252;-83
2021/05/05 14:27:51;;;;;;;1.08;0.98;;;;;;;;;;5055943;28;20205;-83
2021/05/05 14:30:20;;;;;;;1.20;0.90;;;;;;;;;;5055807;28;20249;-83
2021/05/05 14:32:47;;;;;;;1.50;1.13;;;;;;;;;;5055268;28;20194;-83
2021/05/05 14:35:15;;;;;;;1.52;1.10;;;;;;;;;;5055627;28;20194;-83
2021/05/05 14:37:44;;;;;;;1.58;1.20;;;;;;;;;;5055901;28;20208;-82
2021/05/05 14:40:13;;;;;;;1.17;1.05;;;;;;;;;;5056260;28;20311;-83
2021/05/05 14:42:46;;;;;;;2.53;1.27;;;;;;;;;;5056783;28;20205;-84
2021/05/05 14:45:28;;;;;;;1.02;0.93;;;;;;;;;;5055534;28;20202;-84
2021/05/05 14:48:05;;;;;;;1.70;1.05;;;;;;;;;;5057328;28;20292;-84
2021/05/05 14:50:32;;;;;;;1.42;1.33;;;;;;;;;;5057202;28;20256;-83
2021/05/05 14:53:01;;;;;;;2.25;1.20;;;;;;;;;;5057278;28;20198;-83
2021/05/05 14:55:28;;;;;;;1.08;0.98;;;;;;;;;;5056401;28;20186;-83
2021/05/05 14:58:00;;;;;;;1.58;1.10;;;;;;;;;;5056077;28;20205;-84
2021/05/05 15:00:27;;;;;;;1.35;1.20;;;;;;;;;;5055831;28;20243;-84
2021/05/05 15:02:54;;;;;;;1.75;1.00;;;;;;;;;;5056479;28;20193;-84
2021/05/05 15:05:23;;;;;;;2.95;1.30;;;;;;;;;;5056540;28;20209;-84
2021/05/05 15:07:53;;;;;;;1.85;1.52;;;;;;;;;;5056380;28;20208;-83
2021/05/05 15:10:34;;;;;;;0.85;0.60;;;;;;;;;;5056653;28;20229;-84
2021/05/05 15:13:03;;;;;;;0.88;0.88;;;;;;;;;;5056712;28;20205;-83